Time;durP1;ratioP1;P1;durP2;ratioP2;P2;SDS_P1;SDS_P2;PMS_P1;PMS_P2;Temp;Humidity;BMP_temperature;BMP_pressure;BME280_temperature;BME280_humidity;BME280_pressure;Samples;Min_cycle;Max_cycle;Signal;HPM_P1;HPM_P2
2024/03/03 00:00:13;;;;;;;72.00;45.60;;;;;;;5.88;78.16;96576.48;108878;1252;102107;-77
2024/03/03 00:03:00;;;;;;;65.90;40.60;;;;;;;5.88;78.19;96577.73;108845;1252;103323;-77
2024/03/03 00:05:29;;;;;;;67.40;40.80;;;;;;;5.87;78.12;96575.66;108829;1254;100266;-77
2024/03/03 00:07:57;;;;;;;75.60;42.50;;;;;;;5.86;78.13;96575.75;108826;1253;94929;-78
2024/03/03 00:10:24;;;;;;;69.90;42.60;;;;;;;5.82;78.13;96573.66;108881;1252;94531;-78
2024/03/03 00:12:53;;;;;;;74.00;40.90;;;;;;;5.79;78.27;96574.09;108821;1254;102359;-77
2024/03/03 00:15:20;;;;;;;67.10;41.90;;;;;;;5.78;78.19;96571.86;108797;1253;101708;-77
2024/03/03 00:17:48;;;;;;;68.50;40.10;;;;;;;5.76;78.17;96573.33;108769;1252;99933;-78
2024/03/03 00:20:16;;;;;;;67.20;40.00;;;;;;;5.74;78.10;96574.89;108790;1251;94200;-77
2024/03/03 00:22:43;;;;;;;77.30;40.40;;;;;;;5.72;78.40;96577.34;108919;1253;94618;-77
2024/03/03 00:25:11;;;;;;;63.70;39.80;;;;;;;5.68;78.41;96574.48;108901;1253;102418;-77
2024/03/03 00:27:39;;;;;;;61.90;38.60;;;;;;;5.60;78.37;96571.58;108830;1252;101675;-77
2024/03/03 00:30:07;;;;;;;62.30;38.40;;;;;;;5.57;78.37;96570.36;108839;1253;100166;-77
2024/03/03 00:32:35;;;;;;;63.40;38.30;;;;;;;5.56;78.35;96568.75;108856;1252;94210;-77
2024/03/03 00:35:02;;;;;;;64.90;39.20;;;;;;;5.56;78.47;96570.65;108887;1253;94681;-77
2024/03/03 00:37:30;;;;;;;63.40;37.40;;;;;;;5.57;78.62;96566.66;108871;1254;101223;-77
2024/03/03 00:39:58;;;;;;;61.50;37.90;;;;;;;5.52;78.45;96569.29;108838;1253;101593;-77
2024/03/03 00:42:25;;;;;;;67.00;39.20;;;;;;;5.48;78.50;96565.80;108818;1252;107520;-77
2024/03/03 00:44:53;;;;;;;58.70;35.70;;;;;;;5.46;78.59;96568.83;108734;1254;94237;-77
2024/03/03 00:47:21;;;;;;;58.20;35.70;;;;;;;5.43;78.66;96564.67;108860;1253;94574;-77
2024/03/03 00:49:48;;;;;;;53.00;33.20;;;;;;;5.41;78.70;96562.77;108846;1253;102631;-77
2024/03/03 00:52:16;;;;;;;53.70;31.20;;;;;;;5.41;78.72;96570.11;108863;1255;109423;-77
2024/03/03 00:54:44;;;;;;;56.90;32.30;;;;;;;5.39;78.89;96568.04;108814;1253;99847;-77
2024/03/03 00:57:11;;;;;;;51.90;32.00;;;;;;;5.39;78.92;96568.01;108758;1254;94285;-77
2024/03/03 00:59:39;;;;;;;47.20;29.80;;;;;;;5.36;78.79;96569.91;108850;1254;94405;-77
2024/03/03 01:02:07;;;;;;;44.40;29.20;;;;;;;5.30;78.68;96570.09;108861;1252;102485;-77
2024/03/03 01:04:34;;;;;;;45.30;31.40;;;;;;;5.26;78.66;96571.02;108901;1253;101595;-77
2024/03/03 01:07:02;;;;;;;55.20;33.40;;;;;;;5.20;78.74;96568.55;108810;1253;100184;-77
2024/03/03 01:09:30;;;;;;;60.90;34.70;;;;;;;5.16;78.70;96566.08;108763;1253;94610;-77
2024/03/03 01:11:57;;;;;;;48.80;29.30;;;;;;;5.13;78.70;96569.34;108859;1253;94764;-77
2024/03/03 01:14:25;;;;;;;39.00;26.50;;;;;;;5.12;78.80;96567.85;108803;1252;102468;-77
2024/03/03 01:16:53;;;;;;;38.00;23.00;;;;;;;5.11;78.77;96570.89;108817;1253;101525;-77
2024/03/03 01:19:20;;;;;;;41.80;22.50;;;;;;;5.09;78.67;96575.73;108819;1253;100139;-77
2024/03/03 01:21:48;;;;;;;41.20;23.80;;;;;;;5.07;78.59;96573.52;108796;1252;94242;-77
2024/03/03 01:24:16;;;;;;;34.40;20.90;;;;;;;5.01;78.42;96569.61;108809;1254;95177;-77
2024/03/03 01:26:43;;;;;;;35.30;22.60;;;;;;;4.93;78.46;96564.62;108824;1253;102323;-77
2024/03/03 01:29:11;;;;;;;37.10;21.00;;;;;;;4.84;78.55;96553.46;108831;1254;99218;-77
2024/03/03 01:31:41;;;;;;;28.90;17.70;;;;;;;4.80;78.68;96548.34;108809;1253;100168;-77
2024/03/03 01:34:08;;;;;;;28.70;16.30;;;;;;;4.78;78.85;96544.28;108855;1254;94243;-77
2024/03/03 01:36:36;;;;;;;26.80;16.30;;;;;;;4.75;78.86;96544.17;108792;1252;95227;-77
2024/03/03 01:39:03;;;;;;;26.10;16.30;;;;;;;4.72;78.73;96546.45;108895;1254;102449;-77
2024/03/03 01:41:31;;;;;;;32.30;16.50;;;;;;;4.65;78.69;96547.16;108844;1252;101607;-78
2024/03/03 01:43:59;;;;;;;33.50;18.30;;;;;;;4.61;78.80;96552.39;108806;1254;100097;-77
2024/03/03 01:46:27;;;;;;;31.10;18.90;;;;;;;4.58;78.85;96554.07;108792;1252;94283;-77
2024/03/03 01:48:55;;;;;;;34.60;19.30;;;;;;;4.55;78.81;96553.80;108852;1253;94665;-78
2024/03/03 01:51:24;;;;;;;32.60;21.10;;;;;;;4.47;78.69;96544.68;108731;1253;109728;-78
2024/03/03 01:53:53;;;;;;;34.10;21.00;;;;;;;4.40;78.75;96547.14;108882;1254;101431;-78
2024/03/03 01:56:28;;;;;;;31.30;21.00;;;;;;;4.35;78.96;96548.38;108792;1252;100316;-77
2024/03/03 01:58:59;;;;;;;36.60;22.80;;;;;;;4.33;79.23;96551.48;108869;1254;94226;-77
2024/03/03 02:01:28;;;;;;;35.90;24.80;;;;;;;4.34;79.47;96554.86;108831;1253;94480;-78
2024/03/03 02:03:57;;;;;;;38.30;23.70;;;;;;;4.38;79.70;96561.79;108803;1254;102706;-77
2024/03/03 02:06:31;;;;;;;35.00;23.10;;;;;;;4.39;79.48;96564.80;108894;1254;109144;-78
2024/03/03 02:08:59;;;;;;;38.80;24.60;;;;;;;4.33;79.44;96562.87;108792;1253;99802;-77
2024/03/03 02:11:27;;;;;;;49.70;27.90;;;;;;;4.30;79.47;96562.92;108816;1254;94397;-77
2024/03/03 02:13:55;;;;;;;53.70;28.60;;;;;;;4.28;79.43;96561.02;108905;1253;94575;-78
2024/03/03 02:16:22;;;;;;;49.10;28.60;;;;;;;4.26;79.44;96565.17;108833;1253;102201;-77
2024/03/03 02:18:50;;;;;;;48.90;29.90;;;;;;;4.24;79.49;96564.66;108786;1254;109270;-77
2024/03/03 02:21:24;;;;;;;46.60;29.00;;;;;;;4.25;79.59;96562.99;108760;1253;100100;-77
2024/03/03 02:23:52;;;;;;;51.90;30.80;;;;;;;4.23;79.68;96568.23;108846;1253;94238;-79
2024/03/03 02:26:26;;;;;;;56.10;32.70;;;;;;;4.18;79.78;96564.71;108866;1252;94626;-78
2024/03/03 02:28:55;;;;;;;44.80;27.30;;;;;;;4.16;80.01;96560.86;108848;1253;101867;-77
2024/03/03 02:31:25;;;;;;;44.40;26.50;;;;;;;4.14;80.02;96560.39;108860;1253;100115;-78
2024/03/03 02:33:53;;;;;;;34.40;22.40;;;;;;;4.14;79.97;96560.02;108830;1254;100046;-77
2024/03/03 02:36:21;;;;;;;41.20;25.50;;;;;;;4.15;80.02;96558.76;108824;1253;94231;-78
2024/03/03 02:38:50;;;;;;;41.80;24.60;;;;;;;4.16;80.13;96555.40;108876;1253;94656;-78
2024/03/03 02:41:18;;;;;;;36.00;24.30;;;;;;;4.18;80.10;96550.90;108799;1252;102390;-77
2024/03/03 02:43:45;;;;;;;39.30;23.20;;;;;;;4.19;80.13;96550.34;108894;1253;101859;-78
2024/03/03 02:46:13;;;;;;;38.80;24.30;;;;;;;4.20;80.16;96549.33;108797;1254;100198;-78
2024/03/03 02:48:41;;;;;;;35.60;23.30;;;;;;;4.19;80.23;96549.84;108779;1251;94231;-78
2024/03/03 02:51:09;;;;;;;35.80;23.50;;;;;;;4.18;80.37;96546.63;108725;1254;94337;-76
2024/03/03 02:53:36;;;;;;;36.10;24.80;;;;;;;4.19;80.47;96547.38;108799;1253;102376;-77
2024/03/03 02:56:08;;;;;;;33.10;23.20;;;;;;;4.22;80.65;96543.95;108854;1254;101593;-78
2024/03/03 02:58:35;;;;;;;37.00;25.90;;;;;;;4.24;80.73;96546.91;108801;1254;100150;-77
2024/03/03 03:01:03;;;;;;;39.90;25.70;;;;;;;4.24;80.95;96541.73;108843;1254;94312;-77
2024/03/03 03:03:31;;;;;;;42.80;27.30;;;;;;;4.22;81.03;96542.42;108821;1254;95869;-78
2024/03/03 03:05:59;;;;;;;46.50;30.20;;;;;;;4.20;80.97;96543.41;108847;1254;102430;-78
2024/03/03 03:08:26;;;;;;;45.50;29.30;;;;;;;4.22;81.01;96548.80;108830;1254;100339;-77
2024/03/03 03:10:55;;;;;;;45.10;27.60;;;;;;;4.22;81.09;96553.13;108793;1255;99055;-77
2024/03/03 03:13:22;;;;;;;38.40;25.60;;;;;;;4.22;81.06;96553.24;108776;1254;94210;-77
2024/03/03 03:15:50;;;;;;;37.40;25.90;;;;;;;4.20;80.99;96553.30;108863;1252;95088;-77
2024/03/03 03:18:18;;;;;;;35.90;24.60;;;;;;;4.20;81.10;96551.00;108834;1253;102487;-77
2024/03/03 03:20:45;;;;;;;30.60;22.00;;;;;;;4.18;81.00;96552.92;108836;1254;101366;-77
2024/03/03 03:23:13;;;;;;;29.20;21.40;;;;;;;4.18;80.94;96554.84;108807;1253;100095;-77
2024/03/03 03:25:41;;;;;;;32.20;22.20;;;;;;;4.18;81.02;96554.10;108794;1254;94219;-77
2024/03/03 03:28:09;;;;;;;34.20;23.60;;;;;;;4.18;81.07;96554.80;108854;1253;95745;-77
2024/03/03 03:30:36;;;;;;;38.40;24.40;;;;;;;4.17;81.06;96556.20;108831;1254;102499;-77
2024/03/03 03:33:04;;;;;;;38.70;24.60;;;;;;;4.16;81.14;96558.64;108803;1254;101236;-77
2024/03/03 03:35:32;;;;;;;37.70;24.80;;;;;;;4.15;81.04;96564.05;108777;1254;100327;-76
2024/03/03 03:38:00;;;;;;;46.20;26.10;;;;;;;4.15;81.06;96563.56;108766;1254;95591;-76
2024/03/03 03:40:28;;;;;;;42.80;27.90;;;;;;;4.13;80.99;96564.79;108835;1253;96041;-76
2024/03/03 03:42:56;;;;;;;38.70;25.40;;;;;;;4.14;81.17;96564.17;108853;1255;102263;-77
2024/03/03 03:45:24;;;;;;;38.80;25.70;;;;;;;4.17;81.17;96560.63;108845;1252;101515;-77
2024/03/03 03:47:51;;;;;;;30.80;22.10;;;;;;;4.19;81.15;96559.83;108785;1253;99667;-77
2024/03/03 03:50:19;;;;;;;31.30;20.90;;;;;;;4.18;80.97;96561.17;108734;1253;95571;-77
2024/03/03 03:52:47;;;;;;;31.00;20.40;;;;;;;4.16;80.95;96559.71;108836;1254;96087;-77
2024/03/03 03:55:14;;;;;;;28.30;20.20;;;;;;;4.13;80.94;96562.31;108790;1254;103603;-77
2024/03/03 03:57:42;;;;;;;26.00;18.90;;;;;;;4.10;80.95;96562.70;108801;1254;100007;-77
2024/03/03 04:00:10;;;;;;;28.90;20.00;;;;;;;4.08;80.96;96566.15;108788;1252;99793;-77
2024/03/03 04:02:38;;;;;;;29.30;19.70;;;;;;;4.08;81.11;96568.48;108815;1252;96032;-77
2024/03/03 04:05:06;;;;;;;32.90;20.00;;;;;;;4.10;81.32;96570.56;108835;1253;95970;-77
2024/03/03 04:07:34;;;;;;;29.00;18.80;;;;;;;4.11;81.26;96566.86;108860;1254;103679;-77
2024/03/03 04:10:02;;;;;;;28.30;19.40;;;;;;;4.11;81.26;96568.29;108861;1253;101969;-77
2024/03/03 04:12:30;;;;;;;32.30;19.80;;;;;;;4.11;81.27;96566.65;108803;1252;100206;-77
2024/03/03 04:14:58;;;;;;;26.20;18.50;;;;;;;4.12;81.20;96569.41;108799;1254;95969;-77
2024/03/03 04:17:25;;;;;;;35.50;20.80;;;;;;;4.11;81.21;96570.80;108854;1252;96112;-77
2024/03/03 04:19:53;;;;;;;31.90;20.00;;;;;;;4.09;81.24;96574.08;108842;1252;102530;-77
2024/03/03 04:22:22;;;;;;;31.00;21.70;;;;;;;4.05;81.24;96570.34;108839;1252;101499;-77
2024/03/03 04:24:50;;;;;;;33.90;20.90;;;;;;;3.98;81.20;96567.89;108808;1254;99904;-77
2024/03/03 04:27:18;;;;;;;28.90;19.80;;;;;;;3.93;81.27;96565.46;108816;1253;95603;-77
2024/03/03 04:29:48;;;;;;;26.90;18.60;;;;;;;3.91;81.31;96563.23;108798;1254;96127;-77
2024/03/03 04:32:16;;;;;;;29.00;19.50;;;;;;;3.91;81.40;96567.52;108787;1253;103750;-77
2024/03/03 04:34:43;;;;;;;29.40;19.10;;;;;;;3.87;81.42;96562.15;108813;1254;101622;-77
2024/03/03 04:37:11;;;;;;;32.40;19.30;;;;;;;3.83;81.43;96559.29;108813;1253;100510;-77
2024/03/03 04:39:39;;;;;;;37.30;21.30;;;;;;;3.78;81.43;96557.59;108807;1252;95614;-77
2024/03/03 04:42:08;;;;;;;39.70;22.30;;;;;;;3.77;81.51;96560.77;108869;1254;96969;-77
2024/03/03 04:44:35;;;;;;;34.90;21.50;;;;;;;3.78;81.64;96558.55;108894;1252;102258;-77
2024/03/03 04:47:09;;;;;;;31.70;19.10;;;;;;;3.79;81.55;96553.23;108818;1254;99248;-76
2024/03/03 04:49:39;;;;;;;34.50;23.10;;;;;;;3.76;81.38;96559.08;108838;1253;100132;-76
2024/03/03 04:52:07;;;;;;;38.40;22.10;;;;;;;3.74;81.31;96555.20;108757;1253;95755;-77
2024/03/03 04:54:37;;;;;;;38.80;21.40;;;;;;;3.72;81.26;96559.16;108855;1253;96026;-77
2024/03/03 04:57:05;;;;;;;43.30;22.70;;;;;;;3.69;81.21;96562.16;108767;1253;103655;-77
2024/03/03 04:59:33;;;;;;;38.10;21.10;;;;;;;3.68;81.25;96567.85;108816;1254;101594;-77
2024/03/03 05:02:01;;;;;;;35.90;21.30;;;;;;;3.63;81.04;96568.14;108796;1254;100141;-77
2024/03/03 05:04:29;;;;;;;37.00;20.90;;;;;;;3.59;80.89;96567.52;108820;1253;95621;-77
2024/03/03 05:06:57;;;;;;;34.30;20.00;;;;;;;3.54;81.01;96565.73;108795;1253;96148;-77
2024/03/03 05:09:24;;;;;;;35.50;19.70;;;;;;;3.52;81.01;96568.66;108802;1254;103800;-77
2024/03/03 05:11:52;;;;;;;34.40;18.50;;;;;;;3.49;80.93;96567.41;108800;1253;100148;-77
2024/03/03 05:14:19;;;;;;;26.70;16.70;;;;;;;3.47;80.97;96564.84;108770;1253;108644;-77
2024/03/03 05:16:47;;;;;;;30.30;18.40;;;;;;;3.45;80.91;96562.64;108828;1254;95607;-77
2024/03/03 05:19:16;;;;;;;27.70;17.60;;;;;;;3.41;80.90;96565.77;108829;1253;96047;-77
2024/03/03 05:21:44;;;;;;;26.60;17.90;;;;;;;3.37;81.03;96569.30;108883;1251;103564;-77
2024/03/03 05:24:11;;;;;;;29.30;19.70;;;;;;;3.35;81.21;96568.34;108776;1254;101313;-77
2024/03/03 05:26:39;;;;;;;27.00;18.90;;;;;;;3.34;81.34;96573.05;108796;1253;100160;-77
2024/03/03 05:29:08;;;;;;;25.70;18.40;;;;;;;3.34;81.34;96572.85;108789;1253;95727;-77
2024/03/03 05:31:43;;;;;;;30.00;19.00;;;;;;;3.29;81.16;96569.86;108787;1253;96002;-77
2024/03/03 05:34:12;;;;;;;33.90;21.00;;;;;;;3.24;81.16;96573.64;108800;1254;103710;-77
2024/03/03 05:36:41;;;;;;;31.40;20.90;;;;;;;3.25;81.22;96575.36;108851;1252;100144;-77
2024/03/03 05:39:12;;;;;;;36.90;23.60;;;;;;;3.24;81.10;96577.27;108733;1253;100124;-77
2024/03/03 05:41:40;;;;;;;40.30;25.90;;;;;;;3.15;81.04;96574.95;108762;1254;95890;-77
2024/03/03 05:44:09;;;;;;;34.10;23.40;;;;;;;3.10;81.12;96572.50;108764;1253;95937;-77
2024/03/03 05:46:40;;;;;;;32.90;20.60;;;;;;;3.08;81.15;96570.45;108796;1253;103516;-77
2024/03/03 05:49:07;;;;;;;35.60;22.00;;;;;;;3.08;81.25;96571.44;108798;1253;101537;-77
2024/03/03 05:51:36;;;;;;;31.10;20.70;;;;;;;3.07;81.39;96568.52;108822;1254;98740;-77
2024/03/03 05:54:06;;;;;;;28.50;19.90;;;;;;;3.05;81.34;96565.53;108787;1252;95523;-77
2024/03/03 05:56:33;;;;;;;27.60;18.70;;;;;;;3.03;81.50;96563.58;108788;1252;96019;-77
2024/03/03 05:59:01;;;;;;;27.80;19.70;;;;;;;3.05;81.52;96561.22;108815;1252;103766;-77
2024/03/03 06:01:29;;;;;;;29.60;20.40;;;;;;;3.08;81.61;96564.14;108833;1253;100486;-77
2024/03/03 06:03:56;;;;;;;29.00;22.00;;;;;;;3.11;81.80;96563.33;108798;1252;99621;-77
2024/03/03 06:06:24;;;;;;;29.60;21.00;;;;;;;3.13;81.81;96564.92;108812;1253;97197;-77
2024/03/03 06:08:52;;;;;;;30.50;21.10;;;;;;;3.12;81.85;96568.19;108827;1252;96562;-77
2024/03/03 06:11:19;;;;;;;28.00;19.30;;;;;;;3.15;81.98;96564.02;108778;1254;102546;-77
2024/03/03 06:13:47;;;;;;;30.60;20.50;;;;;;;3.18;82.10;96562.63;108805;1251;101615;-77
2024/03/03 06:16:15;;;;;;;26.70;19.40;;;;;;;3.23;82.02;96566.85;108831;1253;100241;-77
2024/03/03 06:18:42;;;;;;;33.50;23.50;;;;;;;3.25;82.08;96566.27;108786;1253;95611;-77
2024/03/03 06:21:11;;;;;;;38.10;25.50;;;;;;;3.28;82.15;96567.25;108859;1252;96070;-77
2024/03/03 06:23:39;;;;;;;43.20;27.60;;;;;;;3.31;82.23;96568.78;108815;1251;103498;-77
2024/03/03 06:26:06;;;;;;;44.90;29.30;;;;;;;3.36;82.34;96564.52;108859;1253;101409;-76
2024/03/03 06:28:34;;;;;;;42.10;29.20;;;;;;;3.42;82.38;96561.23;108750;1253;100617;-76
2024/03/03 06:31:02;;;;;;;44.90;30.90;;;;;;;3.47;82.37;96565.70;108790;1251;95773;-78
2024/03/03 06:33:29;;;;;;;61.00;35.80;;;;;;;3.52;82.41;96564.05;108792;1252;96008;-76
2024/03/03 06:35:58;;;;;;;40.70;27.90;;;;;;;3.55;82.52;96563.29;108814;1253;103701;-77
2024/03/03 06:38:25;;;;;;;39.90;26.80;;;;;;;3.59;82.54;96560.21;108827;1253;101662;-79
2024/03/03 06:40:53;;;;;;;36.80;23.00;;;;;;;3.63;82.75;96555.52;108746;1253;99705;-76
2024/03/03 06:43:21;;;;;;;34.60;23.20;;;;;;;3.69;82.91;96551.09;108762;1252;95691;-78
2024/03/03 06:45:49;;;;;;;36.20;22.00;;;;;;;3.75;82.88;96547.52;108840;1252;95998;-76
2024/03/03 06:48:16;;;;;;;30.80;20.00;;;;;;;3.81;82.85;96548.91;108846;1253;104008;-77
2024/03/03 06:50:44;;;;;;;33.70;20.90;;;;;;;3.89;83.04;96552.89;108906;1252;101027;-77
2024/03/03 06:53:11;;;;;;;32.20;21.10;;;;;;;4.00;83.16;96558.25;108785;1253;99885;-77
2024/03/03 06:55:39;;;;;;;32.50;20.20;;;;;;;4.12;83.08;96554.09;108787;1253;95745;-77
2024/03/03 06:58:08;;;;;;;28.70;19.30;;;;;;;4.24;82.98;96545.84;108857;1252;96161;-77
2024/03/03 07:00:36;;;;;;;29.50;18.40;;;;;;;4.33;82.87;96541.58;108844;1253;103705;-76
2024/03/03 07:03:19;;;;;;;27.30;17.60;;;;;;;4.44;82.93;96543.80;108809;1252;100231;-77
2024/03/03 07:05:47;;;;;;;25.60;16.40;;;;;;;4.59;82.93;96547.60;108831;1253;99665;-77
2024/03/03 07:08:14;;;;;;;27.30;18.10;;;;;;;4.72;82.88;96546.30;108784;1253;95561;-77
2024/03/03 07:10:42;;;;;;;30.60;19.30;;;;;;;4.84;82.83;96541.16;108878;1252;96168;-77
2024/03/03 07:13:10;;;;;;;25.30;18.30;;;;;;;4.97;82.79;96542.91;108823;1253;103524;-77
2024/03/03 07:15:37;;;;;;;26.80;18.40;;;;;;;5.07;82.72;96544.41;108836;1252;101464;-77
2024/03/03 07:18:05;;;;;;;25.60;17.70;;;;;;;5.18;82.89;96539.82;108851;1252;100074;-77
2024/03/03 07:20:33;;;;;;;28.20;17.90;;;;;;;5.30;82.79;96539.02;108784;1252;95940;-78
2024/03/03 07:23:01;;;;;;;24.70;18.10;;;;;;;5.40;82.56;96532.19;108825;1253;96019;-78
2024/03/03 07:25:28;;;;;;;27.70;19.40;;;;;;;5.51;82.49;96531.06;108814;1253;103219;-78
2024/03/03 07:27:56;;;;;;;28.40;20.30;;;;;;;5.62;82.60;96531.73;108826;1251;101605;-77
2024/03/03 07:30:24;;;;;;;28.90;20.00;;;;;;;5.73;82.46;96534.19;108800;1252;100458;-79
2024/03/03 07:32:52;;;;;;;26.00;19.10;;;;;;;5.88;82.60;96533.29;108789;1252;96045;-79
2024/03/03 07:35:19;;;;;;;33.60;19.30;;;;;;;6.03;82.56;96535.09;108793;1252;97341;-79
2024/03/03 07:37:47;;;;;;;35.70;21.00;;;;;;;6.18;82.36;96532.48;108808;1252;103718;-78
2024/03/03 07:40:15;;;;;;;34.50;21.00;;;;;;;6.34;82.35;96536.36;108875;1252;101547;-79
2024/03/03 07:42:42;;;;;;;32.60;18.40;;;;;;;6.54;82.44;96538.34;108803;1253;100185;-79
2024/03/03 07:45:10;;;;;;;27.50;17.50;;;;;;;6.76;82.35;96538.16;108793;1252;95563;-77
2024/03/03 07:47:38;;;;;;;24.00;15.60;;;;;;;6.96;81.85;96532.63;108821;1252;95953;-78
2024/03/03 07:50:06;;;;;;;22.40;14.70;;;;;;;7.13;81.60;96537.34;108819;1252;103491;-79
2024/03/03 07:52:34;;;;;;;22.60;13.70;;;;;;;7.31;81.41;96537.40;108811;1253;101663;-78
2024/03/03 07:55:02;;;;;;;20.80;12.70;;;;;;;7.51;81.51;96536.00;108831;1252;100239;-77
2024/03/03 07:57:29;;;;;;;20.10;12.80;;;;;;;7.73;81.18;96535.27;108827;1252;95655;-78
2024/03/03 07:59:57;;;;;;;15.80;10.30;;;;;;;7.92;80.65;96530.47;108830;1252;96067;-79
2024/03/03 08:02:25;;;;;;;16.50;11.20;;;;;;;8.10;80.53;96529.52;108805;1252;102348;-79
2024/03/03 08:04:56;;;;;;;16.60;10.20;;;;;;;8.32;80.23;96527.48;108781;1253;101516;-78
2024/03/03 08:07:24;;;;;;;16.20;11.60;;;;;;;8.54;79.73;96530.67;108814;1252;100107;-77
2024/03/03 08:09:52;;;;;;;15.70;11.60;;;;;;;8.77;79.49;96532.58;108775;1253;95602;-78
2024/03/03 08:12:19;;;;;;;15.00;11.10;;;;;;;8.99;79.34;96531.88;108852;1253;95988;-78
2024/03/03 08:14:47;;;;;;;17.80;11.60;;;;;;;9.20;78.83;96533.43;108774;1253;102150;-78
2024/03/03 08:17:15;;;;;;;19.10;12.10;;;;;;;9.43;78.13;96529.91;108789;1252;100527;-78
2024/03/03 08:19:43;;;;;;;16.60;11.30;;;;;;;9.67;76.90;96530.15;108741;1252;100032;-78
2024/03/03 08:22:11;;;;;;;16.80;10.80;;;;;;;9.85;76.75;96532.28;108736;1252;95920;-79
2024/03/03 08:24:41;;;;;;;19.20;11.00;;;;;;;10.06;76.55;96534.02;108870;1253;97150;-78
2024/03/03 08:27:09;;;;;;;17.20;10.80;;;;;;;10.31;76.04;96530.98;108844;1253;103720;-78
2024/03/03 08:29:36;;;;;;;18.70;11.30;;;;;;;10.58;76.13;96528.86;108814;1252;101640;-78
2024/03/03 08:32:06;;;;;;;15.60;11.40;;;;;;;10.88;75.89;96525.98;108777;1252;99784;-78
2024/03/03 08:34:34;;;;;;;20.70;11.30;;;;;;;11.19;75.65;96527.66;108721;1252;95831;-78
2024/03/03 08:37:02;;;;;;;17.30;11.30;;;;;;;11.48;75.12;96518.62;108793;1252;95645;-78
2024/03/03 08:39:30;;;;;;;17.80;11.60;;;;;;;11.67;73.31;96516.46;108797;1252;103840;-79
2024/03/03 08:41:58;;;;;;;17.30;12.00;;;;;;;11.76;73.22;96517.25;108790;1251;101868;-79
2024/03/03 08:44:26;;;;;;;19.60;10.80;;;;;;;11.94;73.28;96513.40;108757;1253;99826;-79
2024/03/03 08:46:54;;;;;;;16.70;10.60;;;;;;;12.13;72.91;96510.73;108779;1253;95886;-81
2024/03/03 08:49:22;;;;;;;16.90;10.90;;;;;;;12.26;72.06;96504.95;108849;1252;95494;-80
2024/03/03 08:51:50;;;;;;;15.60;10.20;;;;;;;12.33;71.51;96504.70;108752;1252;103443;-80
2024/03/03 08:54:18;;;;;;;17.90;10.50;;;;;;;12.50;70.93;96504.77;108861;1252;101605;-81
2024/03/03 08:56:46;;;;;;;13.40;9.90;;;;;;;12.72;71.09;96503.95;108763;1253;100029;-79
2024/03/03 08:59:13;;;;;;;17.40;10.10;;;;;;;12.98;70.37;96505.20;108735;1252;95902;-81
2024/03/03 09:01:41;;;;;;;16.10;9.70;;;;;;;13.14;69.70;96504.33;108830;1252;96021;-80
2024/03/03 09:04:09;;;;;;;14.10;9.50;;;;;;;13.30;68.92;96502.13;108780;1252;103623;-79
2024/03/03 09:06:36;;;;;;;13.60;9.20;;;;;;;13.45;68.66;96503.19;108805;1253;100052;-80
2024/03/03 09:09:04;;;;;;;14.90;9.00;;;;;;;13.69;68.93;96503.88;108779;1252;100023;-80
2024/03/03 09:11:33;;;;;;;13.50;9.30;;;;;;;13.93;67.40;96503.56;108713;1252;95525;-79
2024/03/03 09:14:01;;;;;;;12.50;8.70;;;;;;;14.08;67.00;96503.67;108802;1252;96013;-79
2024/03/03 09:16:28;;;;;;;13.60;9.40;;;;;;;14.28;67.02;96498.95;108791;1252;103716;-79
2024/03/03 09:18:57;;;;;;;10.50;8.40;;;;;;;14.49;66.39;96493.52;108739;1252;101424;-80
2024/03/03 09:21:24;;;;;;;13.70;8.10;;;;;;;14.61;65.56;96496.55;108785;1252;101309;-80
2024/03/03 09:23:52;;;;;;;13.60;8.50;;;;;;;14.68;65.29;96496.52;108778;1252;95895;-80
2024/03/03 09:26:20;;;;;;;11.40;8.40;;;;;;;14.73;64.58;96496.39;108825;1252;95555;-80
2024/03/03 09:28:47;;;;;;;11.20;8.20;;;;;;;14.76;64.14;96493.04;108829;1252;103894;-80
2024/03/03 09:31:16;;;;;;;10.00;7.90;;;;;;;14.84;63.75;96491.25;108846;1252;101730;-80
2024/03/03 09:33:47;;;;;;;10.00;7.70;;;;;;;14.90;62.89;96490.81;108813;1253;100164;-80
2024/03/03 09:36:14;;;;;;;14.20;9.10;;;;;;;14.98;62.64;96490.16;108843;1253;95620;-79
2024/03/03 09:38:42;;;;;;;14.30;7.30;;;;;;;15.04;61.90;96484.55;108807;1252;95851;-79
2024/03/03 09:41:10;;;;;;;9.80;6.60;;;;;;;15.20;61.38;96479.38;108862;1253;103680;-80
2024/03/03 09:43:39;;;;;;;14.80;7.20;;;;;;;15.36;60.69;96483.12;108844;1251;101323;-80
2024/03/03 09:46:07;;;;;;;9.70;7.10;;;;;;;15.49;60.53;96483.98;108793;1252;100121;-79
2024/03/03 09:48:35;;;;;;;8.20;6.40;;;;;;;15.54;61.03;96478.00;108767;1252;95569;-79
2024/03/03 09:51:04;;;;;;;8.30;6.10;;;;;;;15.58;60.71;96474.34;108794;1252;95553;-80
2024/03/03 09:53:33;;;;;;;10.10;7.30;;;;;;;15.61;60.09;96477.81;108820;1252;104408;-79
2024/03/03 09:56:03;;;;;;;13.90;8.00;;;;;;;15.57;59.91;96477.81;108770;1253;100092;-80
2024/03/03 09:58:31;;;;;;;8.10;6.40;;;;;;;15.54;59.52;96478.38;108670;1253;98946;-80
2024/03/03 10:01:01;;;;;;;9.90;7.40;;;;;;;15.54;58.98;96476.91;108640;1251;96078;-80
2024/03/03 10:03:30;;;;;;;10.30;7.90;;;;;;;15.66;58.48;96469.80;108696;1253;154216;-80
2024/03/03 10:06:00;;;;;;;13.10;7.70;;;;;;;15.83;58.82;96470.62;108780;1253;103760;-79
2024/03/03 10:08:28;;;;;;;10.50;6.70;;;;;;;16.06;58.29;96467.30;108793;1253;101570;-80
2024/03/03 10:11:01;;;;;;;9.90;6.50;;;;;;;16.32;57.45;96462.73;108851;1252;100087;-80
2024/03/03 10:13:32;;;;;;;8.80;6.00;;;;;;;16.54;56.62;96459.10;108809;1252;95655;-80
2024/03/03 10:16:01;;;;;;;9.90;5.10;;;;;;;16.66;55.29;96459.12;108878;1252;96050;-80
2024/03/03 10:18:29;;;;;;;5.20;4.60;;;;;;;16.73;54.49;96458.91;108837;1251;103911;-80
2024/03/03 10:20:57;;;;;;;5.00;4.50;;;;;;;16.91;54.19;96456.77;108771;1253;101561;-80
2024/03/03 10:23:28;;;;;;;8.10;4.30;;;;;;;17.20;53.52;96453.88;108772;1253;100169;-80
2024/03/03 10:25:57;;;;;;;5.70;4.50;;;;;;;17.44;52.12;96450.11;108810;1252;95555;-80
2024/03/03 10:28:25;;;;;;;6.00;3.60;;;;;;;17.61;52.16;96448.09;108843;1252;96021;-80
2024/03/03 10:31:15;;;;;;;5.80;3.70;;;;;;;17.72;51.42;96442.77;108842;1253;103634;-82
2024/03/03 10:33:57;;;;;;;6.50;4.30;;;;;;;17.80;50.96;96440.17;108899;1253;101554;-80
2024/03/03 10:36:25;;;;;;;6.70;4.40;;;;;;;17.86;51.45;96439.59;108786;1253;100168;-80
2024/03/03 10:38:53;;;;;;;6.10;4.70;;;;;;;17.98;51.00;96438.05;108872;1252;95607;-80
2024/03/03 10:41:21;;;;;;;8.20;5.00;;;;;;;18.13;49.64;96433.55;108890;1253;95583;-80
2024/03/03 10:43:49;;;;;;;6.90;4.60;;;;;;;18.31;49.75;96430.16;108867;1253;103808;-80
2024/03/03 10:46:19;;;;;;;6.80;5.20;;;;;;;18.46;49.51;96422.50;108808;1251;101298;-80
2024/03/03 10:48:47;;;;;;;7.10;5.10;;;;;;;18.67;48.42;96417.88;108845;1252;100139;-80
2024/03/03 10:51:22;;;;;;;7.80;5.90;;;;;;;18.70;48.75;96418.56;108884;1252;95936;-81
2024/03/03 10:53:54;;;;;;;6.70;5.20;;;;;;;18.69;48.56;96412.98;108822;1253;95866;-80
2024/03/03 10:56:23;;;;;;;5.50;5.00;;;;;;;18.71;48.66;96407.23;108825;1252;103880;-80
2024/03/03 10:58:54;;;;;;;8.20;4.90;;;;;;;18.88;48.63;96405.98;108811;1252;101700;-80
2024/03/03 11:01:22;;;;;;;11.70;5.80;;;;;;;19.20;47.85;96404.16;108834;1253;100113;-82
2024/03/03 11:03:52;;;;;;;7.00;4.80;;;;;;;19.59;48.90;96400.55;108865;1253;95772;-82
2024/03/03 11:06:22;;;;;;;7.00;5.20;;;;;;;20.10;47.92;96392.97;108853;1252;95943;-81
2024/03/03 11:08:52;;;;;;;7.90;4.90;;;;;;;20.24;47.04;96390.52;108876;1253;103551;-81
2024/03/03 11:11:25;;;;;;;8.80;5.10;;;;;;;20.29;47.09;96387.11;108867;1253;101583;-81
2024/03/03 11:13:58;;;;;;;4.90;3.80;;;;;;;20.50;46.27;96384.75;108841;1251;100156;-82
2024/03/03 11:16:30;;;;;;;7.80;4.60;;;;;;;20.56;45.28;96385.05;108829;1252;95603;-80
2024/03/03 11:19:05;;;;;;;5.10;4.10;;;;;;;20.42;45.03;96383.91;108838;1254;95549;-80